createdAt,value
2023-05-24T00:01:19.949Z,101238.91
2023-05-24T00:03:46.329Z,101228.44
2023-05-24T00:06:12.708Z,101226.72
2023-05-24T00:08:39.020Z,101228.59
2023-05-24T00:11:05.297Z,101227.06
2023-05-24T00:13:31.541Z,101228.94
2023-05-24T00:15:57.838Z,101231.50
2023-05-24T00:18:24.148Z,101237.13
2023-05-24T00:20:50.597Z,101236.47
2023-05-24T00:23:17.000Z,101235.78
2023-05-24T00:25:43.297Z,101231.19
2023-05-24T00:28:09.601Z,101228.94
2023-05-24T00:30:35.901Z,101230.97
2023-05-24T00:33:02.243Z,101232.16
2023-05-24T00:35:28.601Z,101223.72
2023-05-24T00:37:54.907Z,101225.59
2023-05-24T00:40:21.216Z,101237.13
2023-05-24T00:42:47.687Z,101245.13
2023-05-24T00:45:13.973Z,101238.22
2023-05-24T00:47:40.240Z,101228.84
2023-05-24T00:50:06.536Z,101232.63
2023-05-24T00:52:33.279Z,101224.72
2023-05-24T00:54:59.573Z,101215.13
2023-05-24T00:57:25.898Z,101218.00
2023-05-24T00:59:52.208Z,101212.75
2023-05-24T01:02:18.617Z,101209.16
2023-05-24T01:04:44.922Z,101211.56
2023-05-24T01:07:11.262Z,101211.56
2023-05-24T01:09:37.521Z,101219.47
2023-05-24T01:12:03.860Z,101218.78
2023-05-24T01:14:30.135Z,101215.53
2023-05-24T01:16:56.520Z,101220.25
2023-05-24T01:19:22.922Z,101217.88
2023-05-24T01:21:49.168Z,101220.66
2023-05-24T01:24:15.442Z,101219.09
2023-05-24T01:26:41.720Z,101219.31
2023-05-24T01:29:08.078Z,101225.66
2023-05-24T01:31:34.451Z,101220.75
2023-05-24T01:34:00.792Z,101225.28
2023-05-24T01:36:27.039Z,101218.56
2023-05-24T01:38:53.351Z,101216.09
2023-05-24T01:41:19.698Z,101222.44
2023-05-24T01:43:45.978Z,101215.66
2023-05-24T01:46:12.251Z,101226.28
2023-05-24T01:48:38.512Z,101227.34
2023-05-24T01:51:04.745Z,101229.38
2023-05-24T01:53:31.043Z,101225.19
2023-05-24T01:55:57.321Z,101225.41
2023-05-24T01:58:23.717Z,101223.75
2023-05-24T02:00:49.991Z,101229.88
2023-05-24T02:03:16.274Z,101228.03
2023-05-24T02:05:42.689Z,101222.69
2023-05-24T02:08:08.972Z,101217.44
2023-05-24T02:10:35.224Z,101223.38
2023-05-24T02:13:01.526Z,101227.81
2023-05-24T02:15:27.863Z,101218.22
2023-05-24T02:17:54.281Z,101213.81
2023-05-24T02:20:20.634Z,101219.94
2023-05-24T02:22:46.975Z,101226.00
2023-05-24T02:25:13.255Z,101237.47
2023-05-24T02:27:39.557Z,101228.13
2023-05-24T02:30:05.867Z,101239.63
2023-05-24T02:32:32.201Z,101238.84
2023-05-24T02:34:58.597Z,101239.06
2023-05-24T02:37:24.933Z,101231.22
2023-05-24T02:39:51.206Z,101233.84
2023-05-24T02:42:17.491Z,101230.31
2023-05-24T02:44:43.777Z,101235.63
2023-05-24T02:47:10.083Z,101228.66
2023-05-24T02:49:36.337Z,101224.25
2023-05-24T02:52:02.747Z,101217.16
2023-05-24T02:54:29.025Z,101218.03
2023-05-24T02:56:55.280Z,101219.84
2023-05-24T02:59:21.539Z,101216.31
2023-05-24T03:01:47.918Z,101216.16
2023-05-24T03:04:14.275Z,101216.09
2023-05-24T03:06:40.593Z,101214.31
2023-05-24T03:09:06.886Z,101221.31
2023-05-24T03:11:33.216Z,101217.72
2023-05-24T03:13:59.578Z,101219.28
2023-05-24T03:16:25.888Z,101226.31
2023-05-24T03:18:52.116Z,101223.63
2023-05-24T03:21:18.477Z,101214.03
2023-05-24T03:23:44.776Z,101218.38
2023-05-24T03:26:11.123Z,101220.06
2023-05-24T03:28:37.349Z,101217.44
2023-05-24T03:31:03.664Z,101219.16
2023-05-24T03:33:29.973Z,101226.97
2023-05-24T03:35:56.295Z,101224.94
2023-05-24T03:38:22.597Z,101218.78
2023-05-24T03:40:48.848Z,101227.53
2023-05-24T03:43:15.187Z,101225.88
2023-05-24T03:45:41.519Z,101229.50
2023-05-24T03:48:07.806Z,101240.41
2023-05-24T03:50:34.162Z,101244.19
2023-05-24T03:53:00.523Z,101241.94
2023-05-24T03:55:26.839Z,101247.75
2023-05-24T03:57:53.203Z,101248.16
2023-05-24T04:00:19.579Z,101253.78
2023-05-24T04:02:46.065Z,101258.53
2023-05-24T04:05:12.554Z,101251.69
2023-05-24T04:07:38.876Z,101258.09
2023-05-24T04:10:05.184Z,101259.16
2023-05-24T04:12:31.552Z,101257.50
2023-05-24T04:14:57.840Z,101259.28
2023-05-24T04:17:24.264Z,101257.44
2023-05-24T04:19:50.621Z,101263.47
2023-05-24T04:22:16.945Z,101263.34
2023-05-24T04:24:43.272Z,101259.72
2023-05-24T04:27:09.708Z,101267.38
2023-05-24T04:29:35.986Z,101261.16
2023-05-24T04:32:02.246Z,101269.66
2023-05-24T04:34:28.603Z,101269.63
2023-05-24T04:36:54.897Z,101264.13
2023-05-24T04:39:21.210Z,101265.47
2023-05-24T04:41:47.583Z,101261.72
2023-05-24T04:44:13.960Z,101261.41
2023-05-24T04:46:40.324Z,101261.13
2023-05-24T04:49:06.630Z,101263.50
2023-05-24T04:51:32.921Z,101260.59
2023-05-24T04:53:59.140Z,101255.03
2023-05-24T04:56:25.419Z,101263.50
2023-05-24T04:58:51.745Z,101257.94
2023-05-24T05:01:18.135Z,101251.50
2023-05-24T05:03:44.525Z,101267.00
2023-05-24T05:06:10.940Z,101261.44
2023-05-24T05:08:37.254Z,101264.53
2023-05-24T05:11:03.515Z,101257.97
2023-05-24T05:13:29.844Z,101252.31
2023-05-24T05:15:56.080Z,101257.06
2023-05-24T05:18:22.332Z,101256.47
2023-05-24T05:20:48.719Z,101250.00
2023-05-24T05:23:15.133Z,101246.97
2023-05-24T05:25:41.416Z,101243.94
2023-05-24T05:28:07.630Z,101239.81
2023-05-24T05:30:33.874Z,101243.66
2023-05-24T05:33:00.392Z,101240.63
2023-05-24T05:35:26.819Z,101241.97
2023-05-24T05:37:53.126Z,101251.19
2023-05-24T05:40:19.389Z,101250.09
2023-05-24T05:42:45.672Z,101246.25
2023-05-24T05:45:11.965Z,101247.88
2023-05-24T05:47:38.310Z,101253.75
2023-05-24T05:50:04.604Z,101252.75
2023-05-24T05:52:30.856Z,101254.97
2023-05-24T05:54:57.205Z,101254.81
2023-05-24T05:57:23.444Z,101251.09
2023-05-24T05:59:49.770Z,101251.56
2023-05-24T06:02:16.156Z,101255.34
2023-05-24T06:04:42.555Z,101258.53
2023-05-24T06:07:08.852Z,101257.63
2023-05-24T06:09:35.131Z,101258.97
2023-05-24T06:12:01.514Z,101253.25
2023-05-24T06:14:27.860Z,101257.69
2023-05-24T06:16:56.257Z,101257.69
2023-05-24T06:19:24.190Z,101255.38
2023-05-24T06:21:50.555Z,101260.72
2023-05-24T06:24:16.867Z,101264.22
2023-05-24T06:26:43.245Z,101264.53
2023-05-24T06:29:09.540Z,101267.91
2023-05-24T06:31:35.880Z,101266.31
2023-05-24T06:34:04.226Z,101272.91
2023-05-24T06:36:30.881Z,101268.91
2023-05-24T06:38:57.194Z,101273.56
2023-05-24T06:41:23.516Z,101271.09
2023-05-24T06:43:49.847Z,101277.09
2023-05-24T06:46:16.088Z,101271.66
2023-05-24T06:48:42.474Z,101277.03
2023-05-24T06:51:08.846Z,101276.38
2023-05-24T06:53:35.148Z,101282.13
2023-05-24T06:56:01.393Z,101276.13
2023-05-24T06:58:27.696Z,101283.56
2023-05-24T07:00:53.982Z,101275.13
2023-05-24T07:03:20.305Z,101277.34
2023-05-24T07:05:46.623Z,101287.91
2023-05-24T07:08:12.885Z,101292.59
2023-05-24T07:10:39.279Z,101279.16
2023-05-24T07:13:05.640Z,101287.53
2023-05-24T07:15:31.950Z,101291.69
2023-05-24T07:17:58.272Z,101293.19
2023-05-24T07:20:24.571Z,101293.06
2023-05-24T07:22:51.014Z,101286.13
2023-05-24T07:25:17.347Z,101291.84
2023-05-24T07:27:43.726Z,101288.63
2023-05-24T07:30:23.708Z,101299.09
2023-05-24T07:32:56.306Z,101290.09
2023-05-24T07:35:22.623Z,101286.53
2023-05-24T07:37:48.960Z,101283.78
2023-05-24T07:40:15.275Z,101278.88
2023-05-24T07:42:41.706Z,101283.09
2023-05-24T07:45:08.092Z,101278.44
2023-05-24T07:47:34.382Z,101279.28
2023-05-24T07:50:00.726Z,101283.72
2023-05-24T07:52:27.004Z,101282.66
2023-05-24T07:54:53.277Z,101282.84
2023-05-24T07:57:19.595Z,101293.03
2023-05-24T07:59:45.878Z,101296.75
2023-05-24T08:02:12.198Z,101302.59
2023-05-24T08:04:38.582Z,101300.69
2023-05-24T08:07:04.901Z,101296.44
2023-05-24T08:09:31.260Z,101298.66
2023-05-24T08:11:59.164Z,101298.63
2023-05-24T08:14:25.412Z,101306.94
2023-05-24T08:16:51.789Z,101307.44
2023-05-24T08:19:18.124Z,101310.84
2023-05-24T08:21:44.413Z,101311.56
2023-05-24T08:24:10.741Z,101305.25
2023-05-24T08:26:37.057Z,101308.09
2023-05-24T08:29:03.384Z,101308.94
2023-05-24T08:31:29.764Z,101309.91
2023-05-24T08:33:56.507Z,101326.78
2023-05-24T08:36:22.870Z,101333.38
2023-05-24T08:38:49.177Z,101338.53
2023-05-24T08:41:15.423Z,101341.31
2023-05-24T08:43:41.779Z,101335.59
2023-05-24T08:46:08.164Z,101338.91
2023-05-24T08:48:34.817Z,101333.47
2023-05-24T08:51:01.284Z,101349.69
2023-05-24T08:53:27.612Z,101352.66
2023-05-24T08:55:53.918Z,101359.81
2023-05-24T08:58:20.287Z,101355.94
2023-05-24T09:00:46.575Z,101359.59
2023-05-24T09:03:13.045Z,101362.03
2023-05-24T09:05:39.319Z,101352.94
2023-05-24T09:08:05.677Z,101359.97
2023-05-24T09:10:45.007Z,101360.97
2023-05-24T09:13:18.367Z,101359.13
2023-05-24T09:15:44.954Z,101359.38
2023-05-24T09:18:11.499Z,101355.91
2023-05-24T09:20:37.837Z,101364.47
2023-05-24T09:23:04.219Z,101364.22
2023-05-24T09:25:30.542Z,101367.75
2023-05-24T09:27:56.880Z,101369.31
2023-05-24T09:30:23.228Z,101371.09
2023-05-24T09:32:49.662Z,101368.66
2023-05-24T09:35:15.987Z,101365.13
2023-05-24T09:37:42.285Z,101365.84
2023-05-24T09:40:08.579Z,101362.66
2023-05-24T09:42:34.894Z,101364.09
2023-05-24T09:45:01.179Z,101359.91
2023-05-24T09:47:27.498Z,101364.88
2023-05-24T09:49:53.828Z,101360.63
2023-05-24T09:52:20.076Z,101356.59
2023-05-24T09:54:46.444Z,101357.19
2023-05-24T09:57:12.794Z,101358.22
2023-05-24T09:59:39.058Z,101357.72
2023-05-24T10:02:05.512Z,101355.03
2023-05-24T10:04:31.876Z,101350.22
2023-05-24T10:06:58.276Z,101349.31
2023-05-24T10:09:24.625Z,101348.63
2023-05-24T10:11:50.886Z,101352.44
2023-05-24T10:14:17.243Z,101348.78
2023-05-24T10:16:43.642Z,101352.22
2023-05-24T10:19:10.023Z,101340.22
2023-05-24T10:21:36.424Z,101334.38
2023-05-24T10:24:02.749Z,101335.56
2023-05-24T10:26:29.192Z,101336.44
2023-05-24T10:28:55.558Z,101336.25
2023-05-24T10:31:21.968Z,101339.53
2023-05-24T10:33:48.269Z,101337.50
2023-05-24T10:36:14.636Z,101335.44
2023-05-24T10:38:40.978Z,101337.13
2023-05-24T10:41:07.425Z,101324.03
2023-05-24T10:43:33.800Z,101327.94
2023-05-24T10:46:00.104Z,101326.00
2023-05-24T10:48:26.437Z,101324.41
2023-05-24T10:50:52.737Z,101317.91
2023-05-24T10:53:19.173Z,101323.72
2023-05-24T10:55:45.464Z,101318.63
2023-05-24T10:58:11.806Z,101313.72
2023-05-24T11:00:38.186Z,101309.97
2023-05-24T11:03:04.537Z,101312.03
2023-05-24T11:05:30.866Z,101308.94
2023-05-24T11:07:57.180Z,101303.03
2023-05-24T11:10:23.390Z,101296.78
2023-05-24T11:12:49.642Z,101293.28
2023-05-24T11:15:15.893Z,101304.78
2023-05-24T11:17:43.565Z,101311.91
2023-05-24T11:20:10.098Z,101310.63
2023-05-24T11:22:36.542Z,101299.13
2023-05-24T11:25:02.884Z,101284.41
2023-05-24T11:27:29.195Z,101287.84
2023-05-24T11:29:55.586Z,101291.19
2023-05-24T11:32:22.090Z,101287.13
2023-05-24T11:34:48.500Z,101292.66
2023-05-24T11:37:16.871Z,101289.13
2023-05-24T11:39:44.143Z,101285.22
2023-05-24T11:42:10.433Z,101282.38
2023-05-24T11:44:36.780Z,101281.16
2023-05-24T11:47:03.102Z,101278.22
2023-05-24T11:49:29.430Z,101276.94
2023-05-24T11:51:55.732Z,101278.06
2023-05-24T11:54:22.077Z,101270.78
2023-05-24T11:56:48.360Z,101283.16
2023-05-24T11:59:14.646Z,101280.75
2023-05-24T12:01:40.965Z,101276.94
2023-05-24T12:04:07.476Z,101275.38
2023-05-24T12:06:34.003Z,101274.16
2023-05-24T12:09:00.299Z,101272.78
2023-05-24T12:11:26.625Z,101282.06
2023-05-24T12:13:52.980Z,101282.06
2023-05-24T12:16:19.334Z,101301.09
2023-05-24T12:18:55.138Z,101291.09
2023-05-24T12:21:26.005Z,101284.00
2023-05-24T12:23:52.252Z,101280.88
2023-05-24T12:26:18.522Z,101284.41
2023-05-24T12:28:44.879Z,101292.59
2023-05-24T12:31:11.157Z,101281.03
2023-05-24T12:33:37.529Z,101284.72
2023-05-24T12:36:03.761Z,101284.19
2023-05-24T12:38:30.032Z,101283.50
2023-05-24T12:41:11.562Z,101290.59
2023-05-24T12:43:39.629Z,101274.59
2023-05-24T12:46:05.952Z,101276.53
2023-05-24T12:48:32.261Z,101290.94
2023-05-24T12:50:58.638Z,101271.81
2023-05-24T12:53:24.924Z,101266.25
2023-05-24T12:55:51.183Z,101269.25
2023-05-24T12:58:17.577Z,101267.00
2023-05-24T13:00:44.078Z,101273.88
2023-05-24T13:03:10.646Z,101273.44
2023-05-24T13:05:36.960Z,101266.81
2023-05-24T13:08:03.353Z,101261.41
2023-05-24T13:10:29.629Z,101269.28
2023-05-24T13:12:55.993Z,101260.06
2023-05-24T13:15:22.307Z,101259.91
2023-05-24T13:17:48.590Z,101272.53
2023-05-24T13:20:14.896Z,101263.34
2023-05-24T13:22:41.159Z,101263.63
2023-05-24T13:25:07.514Z,101264.75
2023-05-24T13:27:33.770Z,101270.56
2023-05-24T13:30:01.461Z,101266.03
2023-05-24T13:32:28.144Z,101267.06
2023-05-24T13:34:54.462Z,101259.88
2023-05-24T13:37:20.899Z,101254.19
2023-05-24T13:39:47.153Z,101253.13
2023-05-24T13:42:13.578Z,101255.06
2023-05-24T13:44:39.934Z,101253.38
2023-05-24T13:47:06.247Z,101253.38
2023-05-24T13:49:32.554Z,101253.59
2023-05-24T13:51:58.890Z,101252.09
2023-05-24T13:54:25.217Z,101246.72
2023-05-24T13:56:51.529Z,101249.13
2023-05-24T13:59:17.851Z,101248.94
2023-05-24T14:01:44.254Z,101254.47
2023-05-24T14:04:10.695Z,101249.94
2023-05-24T14:06:36.930Z,101247.88
2023-05-24T14:09:03.277Z,101245.72
2023-05-24T14:11:29.624Z,101240.66
2023-05-24T14:14:57.070Z,101240.56
2023-05-24T14:16:42.313Z,101233.00
2023-05-24T14:19:08.668Z,101237.59
2023-05-24T14:21:35.027Z,101229.69
2023-05-24T14:24:01.348Z,101234.59
2023-05-24T14:26:27.624Z,101236.03
2023-05-24T14:28:56.392Z,101233.63
2023-05-24T14:31:23.462Z,101226.66
2023-05-24T14:33:49.810Z,101229.84
2023-05-24T14:36:16.089Z,101222.38
2023-05-24T14:38:42.313Z,101233.88
2023-05-24T14:41:08.647Z,101235.44
2023-05-24T14:43:34.891Z,101231.91
2023-05-24T14:46:01.318Z,101212.34
2023-05-24T14:48:27.669Z,101220.03
2023-05-24T14:50:53.972Z,101216.19
2023-05-24T14:53:20.221Z,101215.78
2023-05-24T14:55:46.675Z,101220.16
2023-05-24T14:58:13.170Z,101220.03
2023-05-24T15:00:39.532Z,101235.78
2023-05-24T15:03:06.008Z,101237.94
2023-05-24T15:05:32.448Z,101232.63
2023-05-24T15:07:58.790Z,101233.59
2023-05-24T15:10:25.084Z,101231.44
2023-05-24T15:12:51.394Z,101231.81
2023-05-24T15:15:17.741Z,101225.47
2023-05-24T15:17:44.105Z,101216.63
2023-05-24T15:20:10.443Z,101223.88
2023-05-24T15:22:36.996Z,101209.16
2023-05-24T15:25:03.280Z,101207.03
2023-05-24T15:27:29.578Z,101203.78
2023-05-24T15:29:55.882Z,101201.25
2023-05-24T15:32:22.160Z,101197.72
2023-05-24T15:34:48.425Z,101188.25
2023-05-24T15:37:14.769Z,101186.22
2023-05-24T15:39:41.137Z,101188.91
2023-05-24T15:42:07.493Z,101195.50
2023-05-24T15:44:33.791Z,101193.94
2023-05-24T15:47:00.194Z,101196.66
2023-05-24T15:49:26.674Z,101185.50
2023-05-24T15:54:22.197Z,101194.69
2023-05-24T15:56:48.550Z,101195.81
2023-05-24T15:59:14.910Z,101201.78
2023-05-24T16:01:41.266Z,101205.06
2023-05-24T16:04:07.679Z,101199.59
2023-05-24T16:06:34.039Z,101198.22
2023-05-24T16:09:00.345Z,101182.84
2023-05-24T16:11:26.640Z,101182.25
2023-05-24T16:13:52.908Z,101186.03
2023-05-24T16:16:19.169Z,101184.25
2023-05-24T16:18:45.482Z,101191.00
2023-05-24T16:21:11.744Z,101193.94
2023-05-24T16:23:38.070Z,101195.75
2023-05-24T16:26:04.403Z,101196.19
2023-05-24T16:28:30.794Z,101207.53
2023-05-24T16:30:57.135Z,101212.03
2023-05-24T16:33:23.457Z,101220.03
2023-05-24T16:35:49.797Z,101218.72
2023-05-24T16:38:16.125Z,101225.81
2023-05-24T16:40:42.645Z,101224.16
2023-05-24T16:43:09.156Z,101224.66
2023-05-24T16:45:35.558Z,101226.34
2023-05-24T16:48:02.036Z,101231.59
2023-05-24T16:50:28.444Z,101228.81
2023-05-24T16:52:54.772Z,101227.97
2023-05-24T16:55:21.086Z,101225.53
2023-05-24T16:57:47.494Z,101224.31
2023-05-24T17:00:13.776Z,101225.13
2023-05-24T17:02:40.075Z,101230.94
2023-05-24T17:05:06.385Z,101225.88
2023-05-24T17:07:32.621Z,101227.78
2023-05-24T17:09:58.994Z,101233.34
2023-05-24T17:12:25.277Z,101231.28
2023-05-24T17:14:51.589Z,101230.47
2023-05-24T17:17:17.941Z,101231.66
2023-05-24T17:19:44.194Z,101233.81
2023-05-24T17:22:10.538Z,101228.56
2023-05-24T17:24:36.913Z,101237.84
2023-05-24T17:27:03.251Z,101232.97
2023-05-24T17:29:29.561Z,101234.03
2023-05-24T17:31:55.919Z,101232.97
2023-05-24T17:34:22.233Z,101245.59
2023-05-24T17:36:48.559Z,101239.56
2023-05-24T17:39:14.869Z,101232.91
2023-05-24T17:41:41.176Z,101234.47
2023-05-24T17:44:07.479Z,101252.88
2023-05-24T17:46:36.020Z,101248.91
2023-05-24T17:49:03.156Z,101246.59
2023-05-24T17:51:29.544Z,101252.84
2023-05-24T17:53:55.832Z,101253.41
2023-05-24T17:56:22.189Z,101260.97
2023-05-24T17:58:48.512Z,101260.31
2023-05-24T18:01:14.871Z,101256.84
2023-05-24T18:03:41.208Z,101263.66
2023-05-24T18:06:07.815Z,101265.88
2023-05-24T18:08:34.261Z,101270.69
2023-05-24T18:11:00.562Z,101271.31
2023-05-24T18:13:26.828Z,101278.53
2023-05-24T18:15:53.158Z,101286.28
2023-05-24T18:18:19.420Z,101287.22
2023-05-24T18:20:45.868Z,101284.56
2023-05-24T18:23:12.135Z,101285.56
2023-05-24T18:25:38.454Z,101284.06
2023-05-24T18:28:04.721Z,101287.88
2023-05-24T18:30:31.022Z,101290.63
2023-05-24T18:33:06.956Z,101296.66
2023-05-24T18:35:34.622Z,101304.75
2023-05-24T18:38:00.940Z,101302.81
2023-05-24T18:40:27.238Z,101305.91
2023-05-24T18:42:53.611Z,101310.34
2023-05-24T18:45:19.958Z,101314.16
2023-05-24T18:47:46.252Z,101313.84
2023-05-24T18:50:12.580Z,101320.13
2023-05-24T18:52:38.898Z,101317.72
2023-05-24T18:55:05.249Z,101319.13
2023-05-24T18:57:31.582Z,101316.25
2023-05-24T18:59:57.899Z,101317.81
2023-05-24T19:02:24.418Z,101320.94
2023-05-24T19:04:50.785Z,101315.13
2023-05-24T19:07:17.072Z,101316.38
2023-05-24T19:09:43.479Z,101312.22
2023-05-24T19:12:09.817Z,101316.56
2023-05-24T19:14:36.126Z,101324.41
2023-05-24T19:17:02.508Z,101321.00
2023-05-24T19:19:28.874Z,101321.97
2023-05-24T19:21:55.145Z,101322.91
2023-05-24T19:24:21.507Z,101327.28
2023-05-24T19:26:47.807Z,101330.78
2023-05-24T19:29:14.113Z,101330.78
2023-05-24T19:31:40.450Z,101327.44
2023-05-24T19:34:06.728Z,101334.00
2023-05-24T19:36:33.150Z,101335.81
2023-05-24T19:38:59.453Z,101334.63
2023-05-24T19:41:25.698Z,101335.66
2023-05-24T19:43:52.800Z,101336.31
2023-05-24T19:46:20.198Z,101341.81
2023-05-24T19:48:46.533Z,101350.03
2023-05-24T19:51:12.838Z,101347.88
2023-05-24T19:53:39.185Z,101344.66
2023-05-24T19:56:05.461Z,101342.66
2023-05-24T19:58:31.785Z,101349.09
2023-05-24T20:00:58.093Z,101347.78
2023-05-24T20:03:24.558Z,101349.31
2023-05-24T20:05:51.098Z,101349.69
2023-05-24T20:08:18.155Z,101353.59
2023-05-24T20:10:45.768Z,101353.84
2023-05-24T20:13:12.135Z,101348.78
2023-05-24T20:15:38.429Z,101350.34
2023-05-24T20:18:04.743Z,101348.66
2023-05-24T20:20:31.129Z,101351.50
2023-05-24T20:22:57.400Z,101349.53
2023-05-24T20:25:23.665Z,101352.19
2023-05-24T20:27:49.989Z,101361.16
2023-05-24T20:30:16.293Z,101347.06
2023-05-24T20:32:42.634Z,101353.69
2023-05-24T20:35:08.945Z,101346.69
2023-05-24T20:37:35.265Z,101347.00
2023-05-24T20:40:01.563Z,101337.34
2023-05-24T20:42:27.808Z,101349.16
2023-05-24T20:44:54.101Z,101343.88
2023-05-24T20:47:20.430Z,101348.13
2023-05-24T20:49:46.735Z,101346.31
2023-05-24T20:52:13.088Z,101348.56
2023-05-24T20:54:39.362Z,101352.28
2023-05-24T20:57:05.680Z,101351.41
2023-05-24T20:59:31.946Z,101348.88
2023-05-24T21:01:58.318Z,101347.25
2023-05-24T21:04:24.621Z,101349.22
2023-05-24T21:06:50.950Z,101350.25
2023-05-24T21:09:17.271Z,101346.34
2023-05-24T21:11:43.614Z,101347.38
2023-05-24T21:14:09.985Z,101351.72
2023-05-24T21:16:36.294Z,101354.19
2023-05-24T21:19:02.650Z,101353.41
2023-05-24T21:21:28.951Z,101356.44
2023-05-24T21:23:55.314Z,101359.28
2023-05-24T21:26:21.600Z,101347.44
2023-05-24T21:28:47.933Z,101346.94
2023-05-24T21:31:14.404Z,101343.94
2023-05-24T21:33:40.721Z,101342.78
2023-05-24T21:36:06.972Z,101340.84
2023-05-24T21:38:33.271Z,101342.31
2023-05-24T21:40:59.515Z,101334.97
2023-05-24T21:43:25.820Z,101324.84
2023-05-24T21:45:52.061Z,101328.75
2023-05-24T21:48:18.379Z,101318.72
2023-05-24T21:50:44.706Z,101313.69
2023-05-24T21:53:10.952Z,101318.13
2023-05-24T21:55:37.281Z,101318.97
2023-05-24T21:58:03.608Z,101315.31
2023-05-24T22:00:31.033Z,101319.66
2023-05-24T22:02:57.352Z,101327.75
2023-05-24T22:05:24.916Z,101324.25
2023-05-24T22:07:53.108Z,101324.94
2023-05-24T22:10:19.501Z,101323.91
2023-05-24T22:12:45.801Z,101329.09
2023-05-24T22:15:12.072Z,101324.78
2023-05-24T22:17:38.453Z,101323.00
2023-05-24T22:20:04.806Z,101321.28
2023-05-24T22:22:31.165Z,101318.47
2023-05-24T22:24:57.491Z,101319.31
2023-05-24T22:27:23.778Z,101312.91
2023-05-24T22:29:50.077Z,101314.63
2023-05-24T22:32:16.418Z,101312.91
2023-05-24T22:34:42.775Z,101316.59
2023-05-24T22:37:09.072Z,101311.66
2023-05-24T22:39:35.395Z,101303.16
2023-05-24T22:42:01.717Z,101312.25
2023-05-24T22:44:27.999Z,101307.47
2023-05-24T22:46:54.390Z,101294.81
2023-05-24T22:49:20.746Z,101309.22
2023-05-24T22:51:46.996Z,101303.50
2023-05-24T22:54:13.272Z,101303.13
2023-05-24T22:56:39.589Z,101301.94
2023-05-24T22:59:05.945Z,101301.41
2023-05-24T23:01:32.409Z,101303.50
2023-05-24T23:04:11.503Z,101296.94
2023-05-24T23:06:45.109Z,101289.19
2023-05-24T23:09:11.362Z,101291.22
2023-05-24T23:11:37.688Z,101290.44
2023-05-24T23:14:03.979Z,101280.00
2023-05-24T23:16:30.291Z,101284.50
2023-05-24T23:18:56.636Z,101268.44
2023-05-24T23:21:22.929Z,101275.34
2023-05-24T23:23:49.213Z,101278.56
2023-05-24T23:26:15.512Z,101280.28
2023-05-24T23:28:41.767Z,101279.34
2023-05-24T23:31:08.046Z,101282.16
2023-05-24T23:33:34.380Z,101282.22
2023-05-24T23:36:00.659Z,101287.47
2023-05-24T23:38:26.880Z,101281.44
2023-05-24T23:40:53.152Z,101280.63
2023-05-24T23:43:19.494Z,101280.53
2023-05-24T23:45:45.925Z,101277.03
2023-05-24T23:48:12.275Z,101279.66
2023-05-24T23:50:53.213Z,101277.22
2023-05-24T23:53:20.513Z,101278.31
2023-05-24T23:55:46.824Z,101284.50
2023-05-24T23:58:13.080Z,101282.84
